Time;durP1;ratioP1;P1;durP2;ratioP2;P2;SDS_P1;SDS_P2;PMS_P1;PMS_P2;Temp;Humidity;BMP_temperature;BMP_pressure;BME280_temperature;BME280_humidity;BME280_pressure;Samples;Min_cycle;Max_cycle;Signal;HPM_P1;HPM_P2
2024/03/30 00:00:14;;;;;;;12.97;1.90;;;12.20;50.80;;;;;;2030891;29;20194;-69
2024/03/30 00:01:15;;;;;;;11.68;2.28;;;12.10;50.40;;;;;;2030407;29;20284;-69
2024/03/30 00:02:16;;;;;;;13.32;2.08;;;12.20;50.80;;;;;;2030395;29;20345;-69
2024/03/30 00:03:17;;;;;;;10.97;2.33;;;12.10;51.20;;;;;;2022332;29;20194;-69
2024/03/30 00:04:17;;;;;;;11.37;2.03;;;12.10;50.50;;;;;;2031276;29;20192;-69
2024/03/30 00:05:18;;;;;;;14.57;2.10;;;12.00;50.50;;;;;;2031326;29;20212;-69
2024/03/30 00:06:18;;;;;;;15.40;2.20;;;12.00;50.90;;;;;;2031155;29;20228;-69
2024/03/30 00:07:19;;;;;;;10.07;2.07;;;12.00;51.30;;;;;;2031335;29;20188;-69
2024/03/30 00:08:20;;;;;;;15.80;3.73;;;12.00;50.50;;;;;;2032037;29;20196;-69
2024/03/30 00:09:20;;;;;;;10.63;2.10;;;12.00;51.30;;;;;;2031523;29;20308;-69
2024/03/30 00:10:21;;;;;;;9.23;1.90;;;12.00;51.30;;;;;;2031066;29;20260;-70
2024/03/30 00:11:22;;;;;;;12.30;2.37;;;12.00;51.00;;;;;;2031081;29;20728;-69
2024/03/30 00:12:22;;;;;;;15.97;2.93;;;12.00;51.40;;;;;;2030772;29;20237;-70
2024/03/30 00:13:23;;;;;;;7.93;2.00;;;11.90;51.70;;;;;;2031482;29;20237;-69
2024/03/30 00:14:23;;;;;;;10.37;2.17;;;11.90;51.50;;;;;;2022182;29;20304;-69
2024/03/30 00:15:28;;;;;;;8.47;2.80;;;11.90;51.60;;;;;;2023586;29;20463;-69
2024/03/30 00:16:28;;;;;;;13.05;2.08;;;11.90;51.80;;;;;;2031774;29;20608;-70
2024/03/30 00:17:29;;;;;;;12.40;1.70;;;11.90;52.60;;;;;;2031622;29;20228;-69
2024/03/30 00:18:29;;;;;;;12.17;1.93;;;11.90;51.80;;;;;;2030831;29;20253;-69
2024/03/30 00:19:30;;;;;;;7.87;2.00;;;11.90;51.80;;;;;;2030686;29;20821;-69
2024/03/30 00:20:30;;;;;;;8.30;1.97;;;11.90;51.70;;;;;;2030975;29;20236;-69
2024/03/30 00:21:31;;;;;;;16.73;1.90;;;11.90;52.30;;;;;;2030280;29;20251;-69
2024/03/30 00:22:31;;;;;;;10.57;2.00;;;11.90;51.60;;;;;;2030526;29;20225;-69
2024/03/30 00:23:32;;;;;;;8.27;1.83;;;11.90;51.10;;;;;;2030972;29;20315;-69
2024/03/30 00:24:34;;;;;;;11.67;2.07;;;11.90;51.30;;;;;;2030710;29;20224;-69
2024/03/30 00:25:34;;;;;;;8.05;1.83;;;11.90;51.30;;;;;;2030979;29;20510;-69
2024/03/30 00:26:35;;;;;;;15.87;2.77;;;12.00;51.10;;;;;;2031922;29;20713;-69
2024/03/30 00:27:35;;;;;;;9.77;1.80;;;12.00;51.40;;;;;;2030955;29;20228;-69
2024/03/30 00:28:36;;;;;;;9.60;1.40;;;12.00;54.60;;;;;;2030138;29;20374;-69
2024/03/30 00:29:36;;;;;;;10.60;2.33;;;11.90;51.90;;;;;;2028885;29;20293;-69
2024/03/30 00:30:39;;;;;;;9.50;2.10;;;12.00;51.60;;;;;;2032653;29;20224;-69
2024/03/30 00:31:40;;;;;;;21.60;2.42;;;11.90;52.20;;;;;;2032438;29;20252;-69
2024/03/30 00:32:40;;;;;;;10.57;2.13;;;11.90;51.60;;;;;;2030996;29;20737;-69
2024/03/30 00:33:41;;;;;;;11.63;2.10;;;11.90;51.30;;;;;;2030931;29;20721;-69
2024/03/30 00:34:41;;;;;;;12.20;2.40;;;11.90;51.90;;;;;;2030651;29;20251;-69
2024/03/30 00:35:42;;;;;;;7.57;1.90;;;11.90;52.40;;;;;;2030941;29;20252;-69
2024/03/30 00:36:43;;;;;;;12.77;2.42;;;11.90;53.00;;;;;;2031812;29;20238;-70
2024/03/30 00:37:43;;;;;;;6.00;1.80;;;11.80;53.20;;;;;;2030876;29;20287;-69
2024/03/30 00:38:45;;;;;;;16.17;2.17;;;11.70;52.50;;;;;;2031649;29;20260;-69
2024/03/30 00:39:46;;;;;;;11.50;1.60;;;11.70;52.10;;;;;;2031304;29;20235;-69
2024/03/30 00:40:47;;;;;;;10.43;1.97;;;11.80;52.00;;;;;;2031011;29;20606;-69
2024/03/30 00:41:47;;;;;;;12.40;2.20;;;11.70;51.80;;;;;;2030832;29;20239;-69
2024/03/30 00:42:48;;;;;;;12.07;2.33;;;11.70;57.20;;;;;;2031895;29;20261;-69
2024/03/30 00:43:48;;;;;;;10.80;2.47;;;11.70;53.30;;;;;;2026958;29;20259;-70
2024/03/30 00:44:49;;;;;;;10.93;2.47;;;11.60;54.20;;;;;;2025482;29;20232;-69
2024/03/30 00:45:49;;;;;;;11.17;1.90;;;11.60;52.80;;;;;;2030725;29;20339;-69
2024/03/30 00:46:50;;;;;;;14.03;2.03;;;11.60;52.70;;;;;;2030684;29;20240;-69
2024/03/30 00:47:51;;;;;;;12.93;2.37;;;11.60;53.30;;;;;;2026594;29;20316;-69
2024/03/30 00:48:51;;;;;;;10.47;2.53;;;11.60;54.10;;;;;;2028515;29;20284;-69
2024/03/30 00:49:52;;;;;;;13.00;1.80;;;11.60;54.50;;;;;;2032190;29;20237;-69
2024/03/30 00:50:52;;;;;;;15.97;2.27;;;11.50;54.80;;;;;;2030614;29;20231;-69
2024/03/30 00:51:53;;;;;;;14.23;1.90;;;11.60;53.60;;;;;;2030628;29;20709;-69
2024/03/30 00:52:54;;;;;;;11.40;2.80;;;11.60;53.50;;;;;;2031303;29;20762;-69
2024/03/30 00:53:54;;;;;;;7.67;1.87;;;11.50;53.60;;;;;;2028300;29;20312;-69
2024/03/30 00:54:55;;;;;;;12.13;2.33;;;11.40;53.90;;;;;;2032038;29;20233;-69
2024/03/30 00:56:00;;;;;;;11.90;2.10;;;11.40;54.20;;;;;;2031211;29;20283;-69
2024/03/30 00:57:00;;;;;;;11.15;2.30;;;11.40;55.50;;;;;;2030913;29;20268;-69
2024/03/30 00:58:01;;;;;;;11.90;1.90;;;11.40;53.30;;;;;;2030168;29;20236;-69
2024/03/30 00:59:01;;;;;;;7.80;2.00;;;11.40;54.30;;;;;;2031736;29;20228;-69
2024/03/30 01:00:02;;;;;;;9.33;1.97;;;11.30;53.80;;;;;;2029663;29;20749;-69
2024/03/30 01:01:03;;;;;;;10.53;1.97;;;11.30;53.90;;;;;;2030430;29;20274;-69
2024/03/30 01:02:04;;;;;;;10.63;2.10;;;11.40;53.90;;;;;;2030842;29;20189;-69
2024/03/30 01:03:04;;;;;;;12.73;2.10;;;11.40;55.10;;;;;;2030693;29;20184;-69
2024/03/30 01:04:05;;;;;;;10.10;2.30;;;11.30;56.00;;;;;;2030864;29;20281;-69
2024/03/30 01:05:06;;;;;;;8.50;2.20;;;11.30;53.50;;;;;;2030003;29;20211;-69
2024/03/30 01:06:07;;;;;;;5.90;1.73;;;11.30;53.90;;;;;;2031675;29;20289;-70
2024/03/30 01:07:08;;;;;;;9.13;1.90;;;11.30;53.20;;;;;;2031564;29;20193;-69
2024/03/30 01:08:09;;;;;;;9.60;1.95;;;11.40;52.80;;;;;;2031726;29;20189;-69
2024/03/30 01:09:10;;;;;;;10.07;2.50;;;11.40;53.10;;;;;;2031608;29;20200;-69
2024/03/30 01:10:12;;;;;;;13.27;2.83;;;11.40;55.90;;;;;;2030664;29;20191;-69
2024/03/30 01:11:13;;;;;;;11.30;1.92;;;11.30;54.00;;;;;;2021735;29;20224;-69
2024/03/30 01:12:14;;;;;;;11.77;2.38;;;11.30;57.80;;;;;;2022882;29;20634;-69
2024/03/30 01:13:15;;;;;;;14.63;2.33;;;11.20;55.40;;;;;;2030625;29;20224;-69
2024/03/30 01:14:18;;;;;;;13.00;2.40;;;11.20;54.80;;;;;;2029896;29;20193;-69
2024/03/30 01:15:19;;;;;;;6.03;1.80;;;11.20;54.50;;;;;;2029936;29;20275;-69
2024/03/30 01:16:20;;;;;;;9.35;2.65;;;11.20;54.20;;;;;;2029813;29;20181;-69
2024/03/30 01:17:20;;;;;;;9.17;1.60;;;11.30;53.50;;;;;;2030898;29;21700;-69
2024/03/30 01:18:21;;;;;;;10.53;2.10;;;11.30;53.80;;;;;;2030742;29;20236;-69
2024/03/30 01:19:22;;;;;;;6.73;2.00;;;11.30;54.40;;;;;;2030584;29;20232;-69
2024/03/30 01:20:23;;;;;;;12.53;2.03;;;11.30;54.00;;;;;;2030061;29;20311;-69
2024/03/30 01:21:24;;;;;;;12.23;2.22;;;11.30;59.80;;;;;;2029447;29;20696;-69
2024/03/30 01:22:25;;;;;;;10.70;2.50;;;11.20;55.30;;;;;;2030729;29;20244;-69
2024/03/30 01:23:26;;;;;;;9.27;1.83;;;11.20;54.70;;;;;;2031424;29;20272;-70
2024/03/30 01:24:27;;;;;;;10.10;1.90;;;11.10;54.30;;;;;;2031475;29;20319;-69
2024/03/30 01:25:27;;;;;;;9.97;2.00;;;11.20;53.90;;;;;;2030766;29;20776;-69
2024/03/30 01:26:28;;;;;;;10.63;2.43;;;11.10;56.80;;;;;;2030011;29;20256;-69
2024/03/30 01:27:30;;;;;;;8.10;2.30;;;11.10;55.00;;;;;;2030477;29;20598;-69
2024/03/30 01:28:31;;;;;;;8.77;1.70;;;11.10;55.00;;;;;;2030733;29;20693;-69
2024/03/30 01:29:32;;;;;;;8.38;2.15;;;11.10;54.10;;;;;;2030312;29;20639;-69
2024/03/30 01:30:33;;;;;;;7.90;2.23;;;11.10;54.20;;;;;;2030667;29;20237;-69
2024/03/30 01:31:33;;;;;;;14.40;2.30;;;11.20;53.50;;;;;;2031238;29;20236;-69
2024/03/30 01:32:34;;;;;;;12.20;2.10;;;11.20;53.50;;;;;;2030414;29;20229;-69
2024/03/30 01:33:35;;;;;;;9.60;2.10;;;11.20;54.20;;;;;;2030518;29;20233;-69
2024/03/30 01:34:36;;;;;;;26.97;14.53;;;11.20;53.60;;;;;;2030718;29;20768;-69
2024/03/30 01:35:36;;;;;;;11.50;3.33;;;11.30;52.70;;;;;;2030441;29;20233;-69
2024/03/30 01:36:37;;;;;;;11.40;1.93;;;11.30;52.40;;;;;;2031516;29;20240;-69
2024/03/30 01:37:38;;;;;;;10.80;2.50;;;11.40;52.30;;;;;;2030920;29;20307;-69
2024/03/30 01:38:39;;;;;;;11.57;2.22;;;11.40;51.80;;;;;;2028810;29;20263;-69
2024/03/30 01:39:39;;;;;;;10.90;2.40;;;11.40;51.40;;;;;;2029756;29;20236;-69
2024/03/30 01:40:40;;;;;;;11.17;2.23;;;11.50;51.40;;;;;;2031175;29;20387;-69
2024/03/30 01:41:41;;;;;;;12.13;2.27;;;11.50;51.20;;;;;;2030728;29;20245;-69
2024/03/30 01:42:41;;;;;;;12.83;2.43;;;11.50;51.40;;;;;;2029884;29;20332;-69
2024/03/30 01:43:42;;;;;;;7.10;1.80;;;11.50;51.70;;;;;;2027155;29;20229;-69
2024/03/30 01:44:43;;;;;;;11.47;2.27;;;11.50;50.80;;;;;;2025413;29;20225;-69
2024/03/30 01:45:44;;;;;;;10.10;2.33;;;11.50;52.60;;;;;;2030263;29;20229;-69
2024/03/30 01:46:48;;;;;;;10.60;2.60;;;11.50;51.10;;;;;;2029869;29;20248;-69
2024/03/30 01:47:49;;;;;;;5.78;1.73;;;11.50;51.10;;;;;;2026242;29;20228;-69
2024/03/30 01:48:50;;;;;;;15.47;3.03;;;11.50;51.40;;;;;;2025271;29;20237;-69
2024/03/30 01:49:55;;;;;;;20.07;2.70;;;11.50;51.00;;;;;;2031137;29;20233;-69
2024/03/30 01:50:56;;;;;;;13.63;2.55;;;11.50;51.40;;;;;;2029963;29;20235;-69
2024/03/30 01:51:59;;;;;;;16.30;2.60;;;11.50;51.50;;;;;;2030088;29;20228;-69
2024/03/30 01:53:02;;;;;;;11.68;2.28;;;11.50;51.60;;;;;;2030237;29;20688;-69
2024/03/30 01:54:05;;;;;;;10.15;1.70;;;11.50;51.70;;;;;;2030179;29;20243;-69
2024/03/30 01:55:07;;;;;;;6.68;1.75;;;11.50;51.40;;;;;;2030328;29;20236;-69
2024/03/30 01:56:08;;;;;;;9.13;1.98;;;11.50;51.00;;;;;;2030370;29;20185;-70
2024/03/30 01:57:08;;;;;;;11.73;2.27;;;11.50;52.30;;;;;;2030303;29;20200;-69
2024/03/30 01:58:12;;;;;;;11.00;2.20;;;11.50;51.90;;;;;;2031061;29;20228;-69
2024/03/30 01:59:13;;;;;;;15.02;2.47;;;11.50;51.40;;;;;;2029484;29;20209;-69
2024/03/30 02:00:14;;;;;;;11.60;2.10;;;11.50;51.60;;;;;;2029732;29;20181;-69
2024/03/30 02:01:16;;;;;;;9.10;2.30;;;11.50;51.70;;;;;;2031004;29;20192;-69
2024/03/30 02:02:19;;;;;;;8.73;2.40;;;11.50;52.70;;;;;;2030010;29;20268;-69
2024/03/30 02:03:21;;;;;;;9.55;1.73;;;11.40;51.80;;;;;;2030584;29;20643;-69
2024/03/30 02:04:24;;;;;;;12.95;2.15;;;11.40;52.30;;;;;;2029676;29;20243;-69
2024/03/30 02:05:25;;;;;;;11.20;1.92;;;11.40;52.20;;;;;;2029357;29;20237;-69
2024/03/30 02:06:27;;;;;;;14.57;2.88;;;11.40;52.80;;;;;;2020580;29;20233;-69
2024/03/30 02:07:28;;;;;;;7.63;2.00;;;11.30;52.00;;;;;;2021544;29;20234;-69
2024/03/30 02:08:29;;;;;;;9.87;1.90;;;11.40;54.00;;;;;;2025841;29;20229;-69
2024/03/30 02:09:31;;;;;;;10.40;1.65;;;11.30;52.90;;;;;;2025548;29;20734;-69
2024/03/30 02:10:33;;;;;;;11.05;2.08;;;11.30;55.40;;;;;;2028743;29;20292;-69
2024/03/30 02:11:33;;;;;;;8.40;2.20;;;11.30;53.40;;;;;;2029914;29;20319;-69
2024/03/30 02:12:34;;;;;;;15.57;2.00;;;11.30;53.10;;;;;;2028828;29;20236;-69
2024/03/30 02:13:35;;;;;;;10.80;1.87;;;11.30;52.50;;;;;;2029161;29;20619;-69
2024/03/30 02:14:36;;;;;;;10.52;2.15;;;11.30;52.90;;;;;;2029091;29;20610;-69
2024/03/30 02:15:37;;;;;;;19.42;2.38;;;11.20;52.80;;;;;;2029341;29;20308;-69
2024/03/30 02:16:38;;;;;;;8.97;2.10;;;11.20;53.30;;;;;;2029288;29;20248;-69
2024/03/30 02:17:38;;;;;;;10.43;2.47;;;11.20;53.00;;;;;;2029388;29;20224;-69
2024/03/30 02:18:40;;;;;;;9.70;1.60;;;11.20;52.30;;;;;;2029199;29;20896;-69
2024/03/30 02:19:46;;;;;;;8.65;3.20;;;11.20;52.30;;;;;;2029268;29;20288;-69
2024/03/30 02:20:47;;;;;;;16.25;2.85;;;11.20;53.30;;;;;;2030850;29;20232;-69
2024/03/30 02:21:47;;;;;;;6.77;1.50;;;11.20;54.30;;;;;;2029257;29;20236;-69
2024/03/30 02:22:52;;;;;;;10.40;2.10;;;11.20;54.10;;;;;;2029324;29;20280;-69
2024/03/30 02:23:53;;;;;;;16.45;2.47;;;11.10;52.90;;;;;;2028867;29;20588;-69
2024/03/30 02:24:53;;;;;;;14.37;2.37;;;11.20;52.20;;;;;;2029223;29;20324;-70
2024/03/30 02:25:58;;;;;;;19.47;3.03;;;11.20;55.20;;;;;;2029973;29;20240;-69
2024/03/30 02:26:59;;;;;;;7.97;1.55;;;11.10;53.80;;;;;;2029363;29;20233;-69
2024/03/30 02:27:59;;;;;;;5.90;1.90;;;11.10;53.80;;;;;;2029255;29;20339;-69
2024/03/30 02:29:04;;;;;;;14.40;1.77;;;11.10;54.90;;;;;;2028238;29;20237;-69
2024/03/30 02:30:07;;;;;;;12.93;2.10;;;11.10;56.10;;;;;;2023847;29;20232;-69
2024/03/30 02:31:08;;;;;;;12.43;2.28;;;11.10;54.60;;;;;;2029647;29;20189;-69
2024/03/30 02:32:10;;;;;;;9.17;1.90;;;11.20;53.00;;;;;;2029292;29;20232;-69
2024/03/30 02:33:11;;;;;;;13.25;2.30;;;11.10;52.90;;;;;;2029041;29;20531;-69
2024/03/30 02:34:12;;;;;;;8.25;1.90;;;11.20;52.80;;;;;;2029286;29;20185;-69
2024/03/30 02:35:12;;;;;;;12.63;2.23;;;11.20;53.10;;;;;;2030104;29;20617;-69
2024/03/30 02:36:15;;;;;;;7.43;2.17;;;11.10;54.80;;;;;;2028996;29;20245;-69
2024/03/30 02:37:16;;;;;;;8.70;2.00;;;11.10;55.70;;;;;;2030523;29;20196;-69
2024/03/30 02:38:17;;;;;;;8.75;2.83;;;11.10;52.70;;;;;;2030774;29;20534;-69
2024/03/30 02:39:18;;;;;;;13.77;2.57;;;11.20;52.30;;;;;;2029140;29;20185;-69
2024/03/30 02:40:19;;;;;;;15.77;3.37;;;11.20;51.90;;;;;;2028639;29;20274;-69
2024/03/30 02:41:20;;;;;;;10.82;2.20;;;11.10;53.90;;;;;;2028496;29;20368;-69
2024/03/30 02:42:20;;;;;;;8.13;1.70;;;11.10;53.50;;;;;;2029662;29;20241;-69
2024/03/30 02:43:21;;;;;;;11.03;2.40;;;11.20;53.30;;;;;;2028700;29;20241;-69
2024/03/30 02:44:22;;;;;;;9.97;2.23;;;11.20;53.00;;;;;;2028978;29;20242;-69
2024/03/30 02:45:22;;;;;;;10.83;1.93;;;11.20;53.60;;;;;;2029415;29;20632;-70
2024/03/30 02:46:23;;;;;;;11.07;2.00;;;11.20;54.20;;;;;;2028933;29;20284;-69
2024/03/30 02:47:23;;;;;;;19.70;2.70;;;11.20;54.40;;;;;;2029219;29;20280;-69
2024/03/30 02:48:24;;;;;;;16.17;2.00;;;11.20;53.60;;;;;;2028815;29;20312;-69
2024/03/30 02:49:24;;;;;;;7.23;2.10;;;11.20;51.90;;;;;;2030516;29;20310;-69
2024/03/30 02:50:25;;;;;;;10.10;2.20;;;11.20;51.90;;;;;;2028984;29;20240;-69
2024/03/30 02:51:25;;;;;;;8.77;1.63;;;11.30;54.60;;;;;;2029663;29;20244;-69
2024/03/30 02:52:26;;;;;;;14.10;2.20;;;11.20;52.50;;;;;;2029960;29;20580;-69
2024/03/30 02:53:26;;;;;;;9.10;1.53;;;11.20;51.30;;;;;;2029451;29;20718;-69
2024/03/30 02:54:27;;;;;;;9.50;1.77;;;11.20;51.10;;;;;;2032406;29;20255;-69
2024/03/30 02:55:28;;;;;;;12.20;2.33;;;11.20;52.40;;;;;;2030548;29;20655;-69
2024/03/30 02:56:29;;;;;;;9.77;2.07;;;11.30;51.90;;;;;;2030873;29;20225;-69
2024/03/30 02:57:30;;;;;;;6.47;1.67;;;11.20;52.00;;;;;;2030714;29;20642;-69
2024/03/30 02:58:30;;;;;;;10.70;1.73;;;11.20;52.70;;;;;;2031612;29;20244;-69
2024/03/30 02:59:31;;;;;;;9.30;1.90;;;11.30;50.90;;;;;;2030575;29;20320;-69
2024/03/30 03:00:31;;;;;;;14.30;1.70;;;11.30;51.10;;;;;;2030863;29;20323;-69
2024/03/30 03:01:32;;;;;;;9.33;1.90;;;11.30;50.50;;;;;;2030943;29;20236;-69
2024/03/30 03:02:32;;;;;;;11.10;1.40;;;11.30;50.60;;;;;;2031598;29;20283;-69
2024/03/30 03:03:33;;;;;;;4.73;1.43;;;11.40;51.30;;;;;;2030054;29;20291;-69
2024/03/30 03:04:34;;;;;;;9.07;1.83;;;11.40;50.30;;;;;;2032264;29;20255;-69
2024/03/30 03:05:34;;;;;;;6.70;1.20;;;11.40;50.80;;;;;;2030653;29;20299;-69
2024/03/30 03:06:35;;;;;;;5.73;1.57;;;11.30;51.00;;;;;;2030298;29;20247;-69
2024/03/30 03:07:35;;;;;;;8.97;2.07;;;11.30;51.20;;;;;;2030447;29;20244;-69
2024/03/30 03:08:36;;;;;;;6.83;1.80;;;11.30;50.30;;;;;;2031684;29;20705;-69
2024/03/30 03:09:36;;;;;;;6.20;1.53;;;11.30;50.50;;;;;;2031492;29;20357;-69
2024/03/30 03:10:37;;;;;;;7.67;1.90;;;11.40;50.40;;;;;;2030412;29;20343;-69
2024/03/30 03:11:38;;;;;;;8.07;1.47;;;11.40;50.80;;;;;;2031793;29;20229;-69
2024/03/30 03:12:39;;;;;;;6.22;1.40;;;11.40;55.00;;;;;;2030631;29;20239;-69
2024/03/30 03:13:39;;;;;;;6.97;1.50;;;11.40;50.40;;;;;;2030328;29;20748;-69
2024/03/30 03:14:40;;;;;;;4.73;1.23;;;11.40;50.20;;;;;;2027033;29;20241;-69
2024/03/30 03:15:40;;;;;;;7.60;1.47;;;11.30;50.20;;;;;;2030468;29;20241;-69
2024/03/30 03:16:41;;;;;;;9.70;1.77;;;11.40;50.70;;;;;;2031283;29;20229;-70
2024/03/30 03:17:41;;;;;;;9.73;1.57;;;11.40;51.80;;;;;;2029669;29;20232;-70
2024/03/30 03:18:42;;;;;;;7.13;1.27;;;11.30;52.10;;;;;;2030092;29;20425;-70
2024/03/30 03:19:43;;;;;;;7.80;1.40;;;11.30;52.10;;;;;;2026661;29;20646;-70
2024/03/30 03:20:43;;;;;;;4.83;1.50;;;11.30;50.60;;;;;;2034046;29;20722;-70
2024/03/30 03:21:44;;;;;;;5.50;1.50;;;11.30;50.70;;;;;;2037127;29;20373;-69
2024/03/30 03:22:45;;;;;;;7.00;1.50;;;11.30;50.30;;;;;;2029961;29;20233;-69
2024/03/30 03:23:45;;;;;;;8.52;1.65;;;11.30;51.40;;;;;;2029680;29;20239;-69
2024/03/30 03:24:46;;;;;;;7.03;1.40;;;11.30;50.90;;;;;;2030715;29;20588;-69
2024/03/30 03:25:47;;;;;;;6.20;1.10;;;11.30;52.50;;;;;;2032211;29;20687;-69
2024/03/30 03:26:47;;;;;;;10.87;1.40;;;11.20;51.60;;;;;;2029694;29;20312;-69
2024/03/30 03:27:48;;;;;;;6.93;1.67;;;11.20;51.50;;;;;;2029753;29;20236;-69
2024/03/30 03:28:48;;;;;;;11.80;1.83;;;11.20;53.40;;;;;;2030067;29;20224;-70
2024/03/30 03:29:49;;;;;;;8.53;1.50;;;11.20;52.90;;;;;;2031320;29;20765;-69
2024/03/30 03:30:50;;;;;;;6.60;1.40;;;11.10;51.50;;;;;;2027024;29;20229;-69
2024/03/30 03:31:50;;;;;;;14.20;2.10;;;11.10;51.60;;;;;;2025787;29;20298;-69
2024/03/30 03:32:51;;;;;;;10.03;1.57;;;11.10;51.40;;;;;;2032163;29;20229;-70
2024/03/30 03:33:51;;;;;;;6.97;1.80;;;11.00;50.90;;;;;;2030482;29;20363;-70
2024/03/30 03:34:52;;;;;;;9.53;1.80;;;11.00;52.10;;;;;;2030996;29;20225;-69
2024/03/30 03:35:54;;;;;;;13.40;2.30;;;11.00;55.10;;;;;;2030390;29;20229;-69
2024/03/30 03:36:55;;;;;;;5.70;1.67;;;10.90;55.20;;;;;;2031327;29;20237;-69
2024/03/30 03:37:56;;;;;;;11.20;1.50;;;10.80;54.30;;;;;;2031218;29;20244;-69
2024/03/30 03:38:56;;;;;;;6.37;1.70;;;10.80;55.20;;;;;;2030941;29;20374;-69
2024/03/30 03:39:57;;;;;;;8.90;1.40;;;10.70;57.00;;;;;;2029874;29;20229;-69
2024/03/30 03:40:58;;;;;;;7.60;1.43;;;10.60;55.80;;;;;;2027943;29;20252;-69
2024/03/30 03:41:58;;;;;;;7.47;1.63;;;10.60;56.20;;;;;;2030010;29;20479;-69
2024/03/30 03:42:59;;;;;;;7.17;1.50;;;10.50;55.70;;;;;;2029833;29;20280;-69
2024/03/30 03:43:59;;;;;;;9.93;1.50;;;10.50;56.50;;;;;;2030174;29;20245;-69
2024/03/30 03:45:00;;;;;;;8.23;2.00;;;10.40;57.30;;;;;;2030368;29;20237;-69
2024/03/30 03:46:01;;;;;;;6.37;1.43;;;10.30;58.80;;;;;;2029517;29;20626;-69
2024/03/30 03:47:01;;;;;;;9.60;1.60;;;10.10;59.40;;;;;;2031416;29;20236;-69
2024/03/30 03:48:02;;;;;;;11.73;1.80;;;10.10;60.20;;;;;;2031732;29;20649;-69
2024/03/30 03:49:02;;;;;;;8.93;2.47;;;10.10;60.60;;;;;;2030570;29;20560;-68
2024/03/30 03:50:03;;;;;;;14.07;2.53;;;10.10;60.90;;;;;;2030575;29;20599;-69
2024/03/30 03:51:04;;;;;;;13.13;1.90;;;10.00;60.40;;;;;;2032093;29;20196;-69
2024/03/30 03:52:05;;;;;;;8.03;1.47;;;9.80;63.10;;;;;;2030389;29;20659;-69
2024/03/30 03:53:06;;;;;;;7.53;1.97;;;9.70;63.80;;;;;;2031072;29;20271;-69
2024/03/30 03:54:06;;;;;;;6.87;2.00;;;9.60;63.40;;;;;;2030152;29;20217;-69
2024/03/30 03:55:07;;;;;;;7.10;1.70;;;9.50;63.80;;;;;;2031644;29;20211;-69
2024/03/30 03:56:07;;;;;;;10.17;2.67;;;9.40;64.20;;;;;;2030364;29;20185;-69
2024/03/30 03:57:08;;;;;;;5.20;1.37;;;9.30;65.30;;;;;;2030928;29;20196;-69
2024/03/30 03:58:08;;;;;;;7.30;1.60;;;9.30;65.70;;;;;;2021257;29;20196;-69
2024/03/30 03:59:09;;;;;;;7.17;1.60;;;9.30;65.80;;;;;;2030908;29;20192;-69
2024/03/30 04:00:10;;;;;;;6.00;2.13;;;9.20;66.10;;;;;;2036955;29;20196;-69
2024/03/30 04:01:11;;;;;;;9.40;2.55;;;9.20;66.70;;;;;;2030455;29;20204;-69
2024/03/30 04:02:12;;;;;;;9.77;2.22;;;9.20;67.60;;;;;;2031067;29;20195;-69
2024/03/30 04:03:13;;;;;;;6.40;1.43;;;9.20;68.20;;;;;;2026876;29;20293;-70
2024/03/30 04:04:15;;;;;;;11.47;2.13;;;9.10;68.50;;;;;;2029239;29;20184;-69
2024/03/30 04:05:16;;;;;;;10.65;1.73;;;9.10;70.10;;;;;;2027300;29;20464;-69
2024/03/30 04:06:16;;;;;;;7.93;1.50;;;9.10;71.40;;;;;;2030346;29;20192;-69
2024/03/30 04:07:17;;;;;;;5.60;1.73;;;9.00;71.50;;;;;;2023426;29;20695;-69
2024/03/30 04:08:18;;;;;;;12.10;1.60;;;9.00;72.20;;;;;;2027098;29;20197;-69
2024/03/30 04:09:18;;;;;;;5.10;1.47;;;8.90;76.00;;;;;;2031004;29;20220;-69
2024/03/30 04:10:20;;;;;;;8.83;1.80;;;8.70;76.50;;;;;;2029293;29;20188;-69
2024/03/30 04:11:20;;;;;;;6.60;2.20;;;8.70;76.70;;;;;;2028841;29;20195;-69
2024/03/30 04:12:21;;;;;;;7.70;1.70;;;8.60;77.80;;;;;;2030338;29;20245;-69
2024/03/30 04:13:22;;;;;;;8.83;1.93;;;8.60;78.20;;;;;;2031029;29;20247;-69
2024/03/30 04:14:22;;;;;;;9.67;1.60;;;8.50;78.60;;;;;;2030576;29;20294;-69
2024/03/30 04:15:23;;;;;;;10.80;1.90;;;8.50;78.60;;;;;;2029021;29;20338;-69
2024/03/30 04:16:24;;;;;;;7.43;1.60;;;8.50;79.80;;;;;;2029748;29;20264;-69
2024/03/30 04:17:24;;;;;;;10.43;2.47;;;8.30;80.40;;;;;;2029844;29;20246;-69
2024/03/30 04:18:25;;;;;;;6.90;1.87;;;8.30;81.40;;;;;;2029232;29;20234;-69
2024/03/30 04:19:25;;;;;;;7.60;1.50;;;8.30;83.60;;;;;;2030029;29;20242;-69
2024/03/30 04:20:26;;;;;;;7.53;1.50;;;8.20;83.90;;;;;;2029982;29;20244;-69
2024/03/30 04:21:27;;;;;;;4.47;1.60;;;8.20;84.20;;;;;;2030110;29;20255;-69
2024/03/30 04:22:28;;;;;;;9.65;2.35;;;8.10;85.80;;;;;;2029891;29;20239;-69
2024/03/30 04:23:31;;;;;;;8.77;2.43;;;8.10;86.00;;;;;;2028699;29;20780;-70
2024/03/30 04:24:31;;;;;;;15.55;2.13;;;8.00;88.10;;;;;;2031430;29;20240;-69
2024/03/30 04:25:32;;;;;;;5.60;1.77;;;8.00;87.30;;;;;;2030496;29;20557;-69
2024/03/30 04:26:32;;;;;;;6.83;1.40;;;7.90;87.90;;;;;;2029876;29;20272;-69
2024/03/30 04:27:33;;;;;;;11.67;2.10;;;7.90;90.60;;;;;;2023042;29;20243;-69
2024/03/30 04:28:35;;;;;;;8.03;1.50;;;7.80;90.60;;;;;;2013474;29;20236;-69
2024/03/30 04:29:35;;;;;;;11.32;1.58;;;7.70;90.60;;;;;;2021489;29;20247;-69
2024/03/30 04:30:36;;;;;;;9.00;1.57;;;7.70;90.60;;;;;;2029855;29;20249;-69
2024/03/30 04:31:36;;;;;;;7.10;1.67;;;7.70;90.50;;;;;;2026152;29;20252;-69
2024/03/30 04:32:37;;;;;;;4.07;1.50;;;7.70;91.10;;;;;;2031110;29;20232;-69
2024/03/30 04:33:38;;;;;;;9.00;1.70;;;7.70;90.00;;;;;;2022403;29;20227;-69
2024/03/30 04:34:40;;;;;;;7.63;1.93;;;7.70;90.00;;;;;;2021715;29;20682;-69
2024/03/30 04:35:40;;;;;;;11.48;2.17;;;7.70;89.60;;;;;;2029177;29;20244;-69
2024/03/30 04:36:41;;;;;;;7.10;1.50;;;7.70;89.90;;;;;;2026255;29;20640;-69
2024/03/30 04:37:42;;;;;;;6.97;1.30;;;7.60;90.20;;;;;;2023112;29;20253;-69
2024/03/30 04:38:42;;;;;;;10.23;2.30;;;7.70;90.20;;;;;;2020822;29;20292;-69
2024/03/30 04:39:43;;;;;;;4.57;1.80;;;7.60;90.90;;;;;;2030252;29;20229;-69
2024/03/30 04:40:45;;;;;;;11.80;2.00;;;7.50;91.50;;;;;;2029604;29;20715;-69
2024/03/30 04:41:45;;;;;;;5.82;1.73;;;7.50;92.10;;;;;;2021469;29;20263;-69
2024/03/30 04:42:46;;;;;;;12.93;2.10;;;7.50;92.60;;;;;;2021120;29;20228;-69
2024/03/30 04:43:47;;;;;;;7.83;2.03;;;7.40;92.80;;;;;;2013201;29;20232;-69
2024/03/30 04:44:47;;;;;;;6.97;1.40;;;7.40;92.70;;;;;;2005851;29;20235;-69
2024/03/30 04:45:48;;;;;;;13.23;1.83;;;7.40;92.20;;;;;;2021302;29;20240;-69
2024/03/30 04:46:49;;;;;;;5.70;1.73;;;7.30;92.40;;;;;;2034268;29;20720;-69
2024/03/30 04:47:49;;;;;;;8.47;1.33;;;7.30;92.40;;;;;;2025847;29;20333;-69
2024/03/30 04:48:50;;;;;;;8.33;1.97;;;7.30;92.20;;;;;;2017184;29;20229;-69
2024/03/30 04:49:51;;;;;;;9.40;1.83;;;7.30;91.90;;;;;;2026064;29;20260;-69
2024/03/30 04:50:53;;;;;;;6.77;1.80;;;7.30;91.50;;;;;;2033131;29;20224;-69
2024/03/30 04:51:53;;;;;;;6.45;1.45;;;7.30;91.30;;;;;;2033316;29;20240;-69
2024/03/30 04:52:54;;;;;;;5.87;1.60;;;7.30;90.80;;;;;;2020962;29;20357;-69
2024/03/30 04:53:55;;;;;;;8.93;2.27;;;7.40;90.30;;;;;;2014682;29;20382;-69
2024/03/30 04:54:55;;;;;;;9.17;1.57;;;7.40;90.10;;;;;;2021878;29;20324;-69
2024/03/30 04:56:01;;;;;;;6.37;1.87;;;7.50;89.90;;;;;;2029406;29;20758;-69
2024/03/30 04:57:02;;;;;;;4.05;1.70;;;7.50;89.80;;;;;;2020942;29;20257;-69
2024/03/30 04:58:03;;;;;;;7.20;1.50;;;7.50;89.40;;;;;;2021775;29;20190;-68
2024/03/30 04:59:03;;;;;;;8.23;1.27;;;7.50;88.60;;;;;;2021153;29;20210;-69
2024/03/30 05:00:06;;;;;;;6.83;1.83;;;7.60;88.80;;;;;;2021167;29;20652;-69
2024/03/30 05:01:09;;;;;;;2.92;1.25;;;7.60;89.10;;;;;;2020984;29;20783;-69
2024/03/30 05:02:09;;;;;;;4.90;1.60;;;7.60;89.30;;;;;;2029955;29;20193;-68
2024/03/30 05:03:10;;;;;;;8.20;1.33;;;7.60;87.60;;;;;;2028372;29;20287;-70
2024/03/30 05:04:11;;;;;;;11.80;1.43;;;7.70;86.70;;;;;;2021539;29;20189;-69
2024/03/30 05:05:11;;;;;;;11.80;1.33;;;7.60;86.60;;;;;;2030014;29;20200;-68
2024/03/30 05:06:12;;;;;;;7.90;1.50;;;7.60;87.60;;;;;;2030209;29;20192;-69
2024/03/30 05:07:13;;;;;;;7.23;1.07;;;7.70;88.60;;;;;;2021336;29;20217;-69
2024/03/30 05:08:14;;;;;;;9.87;1.60;;;7.70;89.10;;;;;;2021537;29;20268;-69
2024/03/30 05:09:15;;;;;;;9.80;1.63;;;7.70;89.40;;;;;;2021241;29;20268;-69
2024/03/30 05:10:16;;;;;;;10.20;1.33;;;7.70;89.50;;;;;;2013654;29;20199;-69
2024/03/30 05:11:16;;;;;;;6.27;1.53;;;7.70;89.70;;;;;;2021449;29;20204;-69
2024/03/30 05:12:17;;;;;;;4.57;1.30;;;7.60;89.90;;;;;;2022736;29;20213;-68
2024/03/30 05:13:19;;;;;;;5.07;1.23;;;7.70;90.00;;;;;;2013845;29;20674;-69
2024/03/30 05:14:20;;;;;;;6.97;1.23;;;7.70;90.10;;;;;;2014653;29;20683;-69
2024/03/30 05:15:21;;;;;;;6.90;2.17;;;7.70;90.20;;;;;;2020989;29;20253;-69
2024/03/30 05:16:21;;;;;;;7.00;1.67;;;7.70;89.20;;;;;;2023145;29;20373;-69